Time;durP1;ratioP1;P1;durP2;ratioP2;P2;SDS_P1;SDS_P2;PMS_P1;PMS_P2;Temp;Humidity;BMP_temperature;BMP_pressure;BME280_temperature;BME280_humidity;BME280_pressure;Samples;Min_cycle;Max_cycle;Signal;HPM_P1;HPM_P2
2023/06/03 00:00:13;;;;;;;8.53;3.13;;;;;;;12.38;100.00;101178.28;700484;28;870;-57
2023/06/03 00:00:34;;;;;;;4.85;2.80;;;;;;;12.37;100.00;101168.69;699626;28;1600;-57
2023/06/03 00:00:54;;;;;;;5.38;2.53;;;;;;;12.36;100.00;101170.41;700633;28;871;-55
2023/06/03 00:01:15;;;;;;;6.03;2.58;;;;;;;12.35;100.00;101179.19;699889;28;4503;-57
2023/06/03 00:01:36;;;;;;;5.77;2.77;;;;;;;12.35;100.00;101179.19;699360;28;1478;-59
2023/06/03 00:01:57;;;;;;;6.85;2.63;;;;;;;12.38;100.00;101176.53;700578;28;1160;-56
2023/06/03 00:02:17;;;;;;;7.30;2.50;;;;;;;12.37;100.00;101181.78;700541;28;1176;-55
2023/06/03 00:02:37;;;;;;;5.00;2.50;;;;;;;12.34;100.00;101181.81;699901;28;1919;-56
2023/06/03 00:02:59;;;;;;;5.07;2.50;;;;;;;12.33;100.00;101175.66;700833;28;785;-55
2023/06/03 00:03:21;;;;;;;5.35;2.50;;;;;;;12.33;100.00;101180.91;700191;28;989;-56
2023/06/03 00:03:44;;;;;;;5.72;2.60;;;;;;;12.31;100.00;101174.81;699071;28;1451;-57
2023/06/03 00:04:04;;;;;;;7.95;2.55;;;;;;;12.30;100.00;101180.06;700802;28;828;-57
2023/06/03 00:04:29;;;;;;;7.07;2.90;;;;;;;12.28;100.00;101172.22;700343;28;4238;-56
2023/06/03 00:04:49;;;;;;;5.75;2.60;;;;;;;12.27;100.00;101175.72;700706;28;1014;-56
2023/06/03 00:05:10;;;;;;;5.10;2.50;;;;;;;12.27;100.00;101176.56;699706;28;829;-56
2023/06/03 00:05:30;;;;;;;5.55;2.55;;;;;;;12.25;100.00;101178.34;699418;28;1474;-57
2023/06/03 00:05:53;;;;;;;7.10;2.87;;;;;;;12.27;100.00;101180.94;700481;28;958;-56
2023/06/03 00:06:14;;;;;;;5.93;2.88;;;;;;;12.24;100.00;101179.22;700537;28;1026;-56
2023/06/03 00:06:35;;;;;;;5.73;2.73;;;;;;;12.23;100.00;101177.44;698375;28;1462;-56
2023/06/03 00:06:56;;;;;;;5.63;2.70;;;;;;;12.23;100.00;101174.84;701380;28;943;-56
2023/06/03 00:07:17;;;;;;;4.90;2.50;;;;;;;12.23;100.00;101177.44;700367;28;4516;-56
2023/06/03 00:07:37;;;;;;;5.60;2.40;;;;;;;12.23;100.00;101185.31;699520;28;1602;-57
2023/06/03 00:07:57;;;;;;;4.95;2.80;;;;;;;12.23;100.00;101182.69;701259;28;880;-57
2023/06/03 00:08:18;;;;;;;5.13;2.70;;;;;;;12.24;100.00;101184.44;700615;28;1037;-56
2023/06/03 00:08:39;;;;;;;5.00;2.50;;;;;;;12.24;100.00;101186.22;699595;28;1467;-56
2023/06/03 00:09:00;;;;;;;6.60;2.75;;;;;;;12.21;100.00;101175.72;701250;28;928;-56
2023/06/03 00:09:20;;;;;;;5.97;2.57;;;;;;;12.23;100.00;101173.97;700497;28;822;-56
2023/06/03 00:09:40;;;;;;;5.90;2.53;;;;;;;12.24;100.00;101179.22;699393;28;1558;-57
2023/06/03 00:10:01;;;;;;;6.30;2.37;;;;;;;12.22;100.00;101182.72;700748;28;1042;-57
2023/06/03 00:10:21;;;;;;;5.70;2.37;;;;;;;12.22;100.00;101183.56;697705;28;4398;-56
2023/06/03 00:10:41;;;;;;;5.85;2.63;;;;;;;12.20;100.00;101172.22;696441;28;1558;-57
2023/06/03 00:11:02;;;;;;;5.83;2.87;;;;;;;12.20;100.00;101172.22;698111;28;797;-57
2023/06/03 00:11:22;;;;;;;5.35;2.53;;;;;;;12.19;100.00;101170.47;697855;28;904;-57
2023/06/03 00:11:42;;;;;;;6.33;3.00;;;;;;;12.18;100.00;101171.34;698474;28;1506;-61
2023/06/03 00:12:03;;;;;;;6.03;2.90;;;;;;;12.18;100.00;101175.72;699971;28;987;-57
2023/06/03 00:12:24;;;;;;;6.63;2.80;;;;;;;12.18;100.00;101171.34;698270;28;835;-58
2023/06/03 00:12:47;;;;;;;5.68;2.45;;;;;;;12.20;100.00;101180.09;696809;28;1645;-57
2023/06/03 00:13:07;;;;;;;5.43;2.53;;;;;;;12.18;100.00;101179.22;698210;28;964;-56
2023/06/03 00:13:28;;;;;;;5.13;2.57;;;;;;;12.17;100.00;101177.50;698231;28;4544;-54
2023/06/03 00:13:48;;;;;;;5.88;2.70;;;;;;;12.17;100.00;101180.09;700524;28;1013;-57
2023/06/03 00:14:10;;;;;;;6.03;2.90;;;;;;;12.17;100.00;101173.97;701151;28;769;-57
2023/06/03 00:14:30;;;;;;;5.47;2.65;;;;;;;12.15;100.00;101173.97;699626;28;1490;-57
2023/06/03 00:14:51;;;;;;;5.07;2.40;;;;;;;12.14;100.00;101174.84;699844;28;3988;-57
2023/06/03 00:15:12;;;;;;;4.53;2.40;;;;;;;12.15;100.00;101167.88;700496;28;1171;-57
2023/06/03 00:15:32;;;;;;;5.82;2.70;;;;;;;12.13;100.00;101172.25;699147;28;1526;-57
2023/06/03 00:15:52;;;;;;;6.17;2.83;;;;;;;12.10;100.00;101173.13;700814;28;796;-57
2023/06/03 00:16:13;;;;;;;6.35;2.50;;;;;;;12.10;100.00;101170.50;700719;28;4359;-56
2023/06/03 00:16:33;;;;;;;6.50;2.40;;;;;;;12.15;100.00;101173.97;699305;28;1550;-58
2023/06/03 00:16:54;;;;;;;6.13;2.43;;;;;;;12.13;100.00;101178.38;699911;28;1201;-56
2023/06/03 00:17:15;;;;;;;5.45;2.38;;;;;;;12.18;100.00;101171.34;701121;28;927;-57
2023/06/03 00:17:36;;;;;;;5.50;2.60;;;;;;;12.19;100.00;101169.63;699271;28;1564;-56
2023/06/03 00:17:56;;;;;;;4.40;2.40;;;;;;;12.16;100.00;101175.72;700750;28;776;-56
2023/06/03 00:18:16;;;;;;;5.40;2.60;;;;;;;12.16;100.00;101167.00;700817;28;5420;-57
2023/06/03 00:18:37;;;;;;;4.73;2.43;;;;;;;12.16;100.00;101180.13;699471;28;1462;-56
2023/06/03 00:18:59;;;;;;;5.50;2.53;;;;;;;12.14;100.00;101174.00;697631;28;735;-57
2023/06/03 00:19:20;;;;;;;6.88;2.70;;;;;;;12.13;100.00;101175.75;697397;28;4288;-55
2023/06/03 00:19:41;;;;;;;6.10;2.75;;;;;;;12.16;100.00;101172.25;696459;28;1420;-57
2023/06/03 00:20:09;;;;;;;7.05;2.88;;;;;;;12.15;100.00;101181.00;697456;28;1082;-57
2023/06/03 00:20:33;;;;;;;4.88;2.80;;;;;;;12.12;100.00;101175.75;695618;28;1575;-56
2023/06/03 00:20:55;;;;;;;4.68;2.53;;;;;;;12.09;100.00;101172.25;696882;28;1046;-56
2023/06/03 00:21:16;;;;;;;5.80;2.60;;;;;;;12.10;100.00;101173.13;697901;28;943;-56
2023/06/03 00:21:40;;;;;;;5.07;2.38;;;;;;;12.07;100.00;101176.66;696340;28;1569;-56
2023/06/03 00:22:00;;;;;;;4.50;2.58;;;;;;;12.08;100.00;101169.66;697984;28;994;-60
2023/06/03 00:22:24;;;;;;;4.97;2.60;;;;;;;12.08;100.00;101180.13;699294;28;4388;-57
2023/06/03 00:22:45;;;;;;;7.22;2.85;;;;;;;12.09;100.00;101181.88;699802;28;1458;-55
2023/06/03 00:23:05;;;;;;;9.85;3.20;;;;;;;12.12;100.00;101175.75;700810;28;954;-57
2023/06/03 00:23:26;;;;;;;6.63;2.90;;;;;;;12.11;100.00;101177.50;700896;28;988;-56
2023/06/03 00:23:48;;;;;;;6.57;2.47;;;;;;;12.16;100.00;101173.13;699402;28;1610;-56
2023/06/03 00:24:08;;;;;;;7.43;2.60;;;;;;;12.12;100.00;101170.53;700486;28;1235;-56
2023/06/03 00:24:28;;;;;;;6.37;2.60;;;;;;;12.09;100.00;101176.63;699495;28;2083;-57
2023/06/03 00:24:49;;;;;;;6.23;2.77;;;;;;;12.08;100.00;101177.50;700914;28;871;-57
2023/06/03 00:25:11;;;;;;;5.38;2.50;;;;;;;12.08;100.00;101170.50;699908;28;4510;-57
2023/06/03 00:25:32;;;;;;;7.03;3.00;;;;;;;12.09;100.00;101177.50;699057;28;1489;-57
2023/06/03 00:25:52;;;;;;;7.00;3.10;;;;;;;12.08;100.00;101173.13;700470;28;1049;-56
2023/06/03 00:26:12;;;;;;;6.78;2.78;;;;;;;12.05;100.00;101178.38;701056;28;959;-56
2023/06/03 00:26:33;;;;;;;6.50;2.70;;;;;;;12.06;100.00;101176.66;698827;28;1545;-57
2023/06/03 00:26:54;;;;;;;4.60;2.30;;;;;;;12.03;100.00;101172.28;697279;28;1525;-56
2023/06/03 00:27:15;;;;;;;5.03;2.40;;;;;;;12.04;100.00;101184.50;697835;28;1645;-56
2023/06/03 00:27:36;;;;;;;5.57;2.92;;;;;;;12.03;100.00;101177.53;696282;28;1495;-57
2023/06/03 00:27:57;;;;;;;5.97;2.85;;;;;;;12.04;100.00;101176.63;697434;28;892;-57
2023/06/03 00:28:17;;;;;;;5.70;2.78;;;;;;;12.05;100.00;101174.91;697445;28;4574;-57
2023/06/03 00:28:38;;;;;;;5.40;2.70;;;;;;;12.08;100.00;101165.25;699520;28;1549;-57
2023/06/03 00:28:58;;;;;;;5.40;2.67;;;;;;;12.13;100.00;101170.50;700791;28;880;-57
2023/06/03 00:29:19;;;;;;;5.33;2.63;;;;;;;12.11;100.00;101169.63;700614;28;1224;-56
2023/06/03 00:29:43;;;;;;;6.95;2.60;;;;;;;12.09;100.00;101168.78;699034;28;1803;-55
2023/06/03 00:30:05;;;;;;;6.22;2.65;;;;;;;12.11;100.00;101172.25;699714;28;908;-57
2023/06/03 00:30:26;;;;;;;5.38;2.83;;;;;;;12.08;100.00;101170.50;700892;28;911;-56
2023/06/03 00:30:46;;;;;;;5.82;2.90;;;;;;;12.06;100.00;101171.41;698291;28;1104;-56
2023/06/03 00:31:08;;;;;;;5.80;2.70;;;;;;;12.04;100.00;101175.78;700672;28;1490;-56
2023/06/03 00:31:28;;;;;;;6.20;2.80;;;;;;;12.03;100.00;101171.41;698981;28;4378;-57
2023/06/03 00:31:49;;;;;;;5.55;3.00;;;;;;;12.01;100.00;101183.66;700895;28;781;-56
2023/06/03 00:32:09;;;;;;;5.73;2.77;;;;;;;11.98;100.00;101178.41;697587;28;833;-56
2023/06/03 00:32:29;;;;;;;5.05;2.60;;;;;;;11.96;100.00;101175.78;696526;28;1570;-56
2023/06/03 00:32:50;;;;;;;4.73;2.63;;;;;;;11.97;100.00;101174.03;697840;28;873;-56
2023/06/03 00:33:10;;;;;;;6.13;2.77;;;;;;;11.96;100.00;101169.69;700902;28;694;-57
2023/06/03 00:33:31;;;;;;;5.88;2.65;;;;;;;11.95;100.00;101173.16;699198;28;1586;-56
2023/06/03 00:33:51;;;;;;;5.77;2.50;;;;;;;11.93;100.00;101175.75;700502;28;797;-55
2023/06/03 00:34:11;;;;;;;5.00;2.50;;;;;;;11.92;100.00;101177.53;699935;28;4386;-58
2023/06/03 00:34:32;;;;;;;5.37;2.73;;;;;;;11.93;100.00;101167.91;695980;28;1502;-58
2023/06/03 00:34:52;;;;;;;4.75;2.60;;;;;;;11.90;100.00;101171.38;697676;28;931;-58
2023/06/03 00:35:13;;;;;;;4.47;2.50;;;;;;;11.90;100.00;101168.78;697853;28;823;-56
2023/06/03 00:35:34;;;;;;;5.60;2.70;;;;;;;11.91;100.00;101172.28;695314;28;1486;-56
2023/06/03 00:35:55;;;;;;;6.20;2.95;;;;;;;11.91;100.00;101173.16;694786;28;1079;-55
2023/06/03 00:36:15;;;;;;;6.00;2.70;;;;;;;11.92;100.00;101169.66;695563;28;1347;-56
2023/06/03 00:36:36;;;;;;;5.20;2.60;;;;;;;11.97;100.00;101166.19;695625;28;1491;-55
2023/06/03 00:36:57;;;;;;;8.40;2.85;;;;;;;11.98;100.00;101168.81;694696;28;1429;-56
2023/06/03 00:37:17;;;;;;;8.77;2.67;;;;;;;11.97;100.00;101174.91;694602;28;4351;-54
2023/06/03 00:37:38;;;;;;;5.83;2.60;;;;;;;11.98;100.00;101174.03;694226;28;1152;-54
2023/06/03 00:37:58;;;;;;;5.68;2.63;;;;;;;12.00;100.00;101168.78;694858;28;1345;-56
2023/06/03 00:38:18;;;;;;;4.97;2.60;;;;;;;12.00;100.00;101172.28;698006;28;823;-56
2023/06/03 00:38:39;;;;;;;5.70;3.17;;;;;;;11.99;100.00;101174.91;694304;28;1751;-56
2023/06/03 00:39:00;;;;;;;5.75;2.90;;;;;;;11.95;100.00;101167.91;696875;28;2054;-55
2023/06/03 00:39:22;;;;;;;6.23;2.60;;;;;;;11.91;100.00;101173.16;698206;28;1248;-56
2023/06/03 00:39:42;;;;;;;5.90;2.53;;;;;;;11.91;100.00;101167.03;696956;28;1471;-56
2023/06/03 00:40:06;;;;;;;6.70;2.60;;;;;;;11.90;100.00;101165.28;700298;28;911;-56
2023/06/03 00:40:26;;;;;;;6.00;2.40;;;;;;;11.88;100.00;101170.53;699755;28;4422;-55
2023/06/03 00:40:47;;;;;;;5.57;2.80;;;;;;;11.87;100.00;101168.78;698808;28;1605;-55
2023/06/03 00:41:07;;;;;;;6.03;2.87;;;;;;;11.85;100.00;101172.28;697190;28;1268;-54
2023/06/03 00:41:27;;;;;;;6.03;3.00;;;;;;;11.84;100.00;101171.41;698087;28;780;-60
2023/06/03 00:41:48;;;;;;;4.65;2.60;;;;;;;11.84;100.00;101171.41;697225;28;1491;-56
2023/06/03 00:42:08;;;;;;;4.70;2.60;;;;;;;11.85;100.00;101172.28;697630;28;864;-53
2023/06/03 00:42:29;;;;;;;5.40;2.50;;;;;;;11.84;100.00;101171.41;696657;28;1921;-56
2023/06/03 00:42:50;;;;;;;4.82;2.55;;;;;;;11.83;100.00;101164.44;697164;28;1006;-55
2023/06/03 00:43:10;;;;;;;4.47;2.70;;;;;;;11.84;100.00;101165.31;699965;28;4623;-54
2023/06/03 00:43:30;;;;;;;5.97;2.90;;;;;;;11.84;100.00;101171.41;699083;28;1481;-55
2023/06/03 00:43:51;;;;;;;6.37;2.70;;;;;;;11.83;100.00;101169.66;698169;28;1221;-59
2023/06/03 00:44:11;;;;;;;6.03;2.67;;;;;;;11.83;100.00;101169.66;700564;28;907;-56
2023/06/03 00:44:31;;;;;;;5.47;2.73;;;;;;;11.83;100.00;101164.44;697890;28;1499;-57
2023/06/03 00:44:52;;;;;;;5.30;2.80;;;;;;;11.84;100.00;101168.78;697978;28;1372;-58
2023/06/03 00:45:13;;;;;;;6.93;2.70;;;;;;;11.81;100.00;101162.69;694714;28;1223;-62
2023/06/03 00:45:33;;;;;;;5.78;2.50;;;;;;;11.80;100.00;101166.19;694220;28;914;-58
2023/06/03 00:45:54;;;;;;;5.63;2.83;;;;;;;11.79;100.00;101169.69;698180;28;865;-58
2023/06/03 00:46:17;;;;;;;6.55;2.85;;;;;;;11.80;100.00;101164.44;691309;28;4411;-56
2023/06/03 00:46:37;;;;;;;5.13;2.60;;;;;;;11.79;100.00;101165.31;691558;28;2130;-55
2023/06/03 00:46:58;;;;;;;4.77;2.50;;;;;;;11.82;100.00;101162.69;692718;28;1231;-56
2023/06/03 00:47:20;;;;;;;5.28;2.55;;;;;;;11.81;100.00;101160.06;695081;28;875;-55
2023/06/03 00:47:41;;;;;;;5.15;2.53;;;;;;;11.81;100.00;101163.56;693835;28;1694;-56
2023/06/03 00:48:01;;;;;;;5.17;2.47;;;;;;;11.82;100.00;101162.69;695035;28;834;-56
2023/06/03 00:48:22;;;;;;;5.63;2.70;;;;;;;11.83;100.00;101161.81;695192;28;948;-55
2023/06/03 00:48:43;;;;;;;4.90;2.53;;;;;;;11.82;100.00;101159.19;691462;28;1462;-55
2023/06/03 00:49:03;;;;;;;6.47;2.65;;;;;;;11.81;100.00;101163.56;694665;28;974;-55
2023/06/03 00:49:24;;;;;;;6.28;2.90;;;;;;;11.79;100.00;101167.94;694610;28;4414;-57
2023/06/03 00:49:45;;;;;;;5.00;2.70;;;;;;;11.77;100.00;101159.22;694212;28;1645;-56
2023/06/03 00:50:07;;;;;;;6.15;2.97;;;;;;;11.74;100.00;101160.09;695095;28;1577;-56
2023/06/03 00:50:28;;;;;;;6.15;3.00;;;;;;;11.71;100.00;101157.47;695629;28;976;-56
2023/06/03 00:50:48;;;;;;;6.53;3.08;;;;;;;11.70;100.00;101160.97;696858;28;1609;-59
2023/06/03 00:51:09;;;;;;;5.90;2.92;;;;;;;11.70;100.00;101162.69;695281;28;1605;-57
2023/06/03 00:51:33;;;;;;;5.40;2.53;;;;;;;11.72;100.00;101155.72;691309;28;1637;-57
2023/06/03 00:51:54;;;;;;;5.35;2.55;;;;;;;11.74;100.00;101161.81;693985;28;841;-57
2023/06/03 00:52:16;;;;;;;5.65;2.78;;;;;;;11.71;100.00;101154.84;694929;28;4290;-59
2023/06/03 00:52:40;;;;;;;6.15;2.67;;;;;;;11.71;100.00;101162.72;692915;28;1526;-57
2023/06/03 00:53:02;;;;;;;5.32;2.65;;;;;;;11.73;100.00;101160.09;697239;28;1030;-57
2023/06/03 00:53:22;;;;;;;5.50;2.67;;;;;;;11.71;100.00;101159.22;695721;28;1299;-57
2023/06/03 00:53:43;;;;;;;5.50;2.70;;;;;;;11.69;100.00;101161.84;693826;28;1725;-57
2023/06/03 00:54:04;;;;;;;7.20;2.85;;;;;;;11.68;100.00;101161.84;695924;28;928;-57
2023/06/03 00:54:25;;;;;;;6.53;2.70;;;;;;;11.67;100.00;101160.09;692774;28;904;-57
2023/06/03 00:54:50;;;;;;;6.80;2.90;;;;;;;11.69;100.00;101160.97;690918;28;1571;-57
2023/06/03 00:55:10;;;;;;;5.03;2.80;;;;;;;11.70;100.00;101162.69;693809;28;4425;-56
2023/06/03 00:55:31;;;;;;;6.35;2.80;;;;;;;11.70;100.00;101154.84;697206;28;1589;-57
2023/06/03 00:55:52;;;;;;;6.82;2.80;;;;;;;11.71;100.00;101157.47;695458;28;1132;-57
2023/06/03 00:56:15;;;;;;;5.40;2.60;;;;;;;11.80;100.00;101159.19;693679;28;1424;-57
2023/06/03 00:56:42;;;;;;;5.60;2.60;;;;;;;11.78;100.00;101160.94;694113;28;1544;-57
2023/06/03 00:57:04;;;;;;;5.97;2.88;;;;;;;11.77;100.00;101164.44;695332;28;1483;-56
2023/06/03 00:57:26;;;;;;;6.07;2.70;;;;;;;11.74;100.00;101165.31;691822;28;1239;-58
2023/06/03 00:57:47;;;;;;;5.05;2.50;;;;;;;11.73;100.00;101160.09;690904;28;1540;-58
2023/06/03 00:58:08;;;;;;;5.82;2.67;;;;;;;11.69;100.00;101158.34;695080;28;932;-58
2023/06/03 00:58:30;;;;;;;7.53;2.90;;;;;;;11.68;100.00;101161.84;692669;28;4704;-58
2023/06/03 00:58:50;;;;;;;5.22;2.70;;;;;;;11.66;100.00;101160.94;692718;28;853;-58
2023/06/03 00:59:14;;;;;;;4.95;2.90;;;;;;;11.64;100.00;101157.47;694518;28;872;-58
2023/06/03 00:59:35;;;;;;;4.60;2.65;;;;;;;11.60;100.00;101156.59;696768;28;1145;-57
2023/06/03 00:59:55;;;;;;;5.37;2.90;;;;;;;11.57;100.00;101157.50;697416;28;1215;-58
2023/06/03 01:00:16;;;;;;;6.17;2.77;;;;;;;11.57;100.00;101156.59;695520;28;1175;-57
2023/06/03 01:00:36;;;;;;;5.83;2.80;;;;;;;11.55;100.00;101150.50;694421;28;1135;-58
2023/06/03 01:00:56;;;;;;;6.87;2.93;;;;;;;11.57;100.00;101157.50;694919;28;972;-57
2023/06/03 01:01:19;;;;;;;5.47;2.73;;;;;;;11.60;100.00;101156.59;694634;28;4443;-57
2023/06/03 01:01:42;;;;;;;5.30;2.70;;;;;;;11.59;100.00;101160.13;694449;28;1579;-58
2023/06/03 01:02:02;;;;;;;4.78;2.72;;;;;;;11.54;100.00;101157.47;695116;28;1445;-59
2023/06/03 01:02:23;;;;;;;6.07;2.70;;;;;;;11.54;100.00;101147.00;697747;28;1975;-58
2023/06/03 01:02:44;;;;;;;6.85;2.70;;;;;;;11.56;100.00;101165.31;697271;28;1468;-57
2023/06/03 01:03:04;;;;;;;6.07;2.77;;;;;;;11.55;100.00;101155.75;698070;28;1054;-58
2023/06/03 01:03:25;;;;;;;5.83;2.80;;;;;;;11.54;100.00;101157.47;694844;28;841;-58
2023/06/03 01:03:47;;;;;;;5.97;2.90;;;;;;;11.56;100.00;101155.75;691578;28;1578;-58
2023/06/03 01:04:09;;;;;;;5.20;2.67;;;;;;;11.59;100.00;101158.34;695628;28;796;-58
2023/06/03 01:04:29;;;;;;;5.60;2.75;;;;;;;11.60;100.00;101161.84;696769;28;6558;-58
2023/06/03 01:04:51;;;;;;;6.85;3.10;;;;;;;11.58;100.00;101153.97;695609;28;1408;-58
2023/06/03 01:05:13;;;;;;;5.72;3.25;;;;;;;11.64;100.00;101154.84;695098;28;920;-58
2023/06/03 01:05:35;;;;;;;6.50;2.92;;;;;;;11.62;100.00;101157.47;691782;28;1960;-58
2023/06/03 01:06:15;;;;;;;7.10;3.20;;;;;;;11.57;100.00;101156.59;695861;28;1132;-58
2023/06/03 01:06:57;;;;;;;4.95;2.70;;;;;;;11.53;100.00;101155.75;694373;28;1651;-57
2023/06/03 01:07:26;;;;;;;5.95;2.75;;;;;;;11.53;100.00;101150.53;696250;28;4587;-58
2023/06/03 01:07:46;;;;;;;7.07;2.78;;;;;;;11.54;100.00;101154.84;698967;28;1432;-58
2023/06/03 01:08:18;;;;;;;8.23;2.92;;;;;;;11.51;100.00;101157.50;700983;28;1042;-58
2023/06/03 01:08:50;;;;;;;6.18;2.95;;;;;;;11.51;100.00;101157.50;695844;28;1586;-58
2023/06/03 01:09:40;;;;;;;5.15;2.80;;;;;;;11.50;100.00;101160.97;697179;28;911;-58
2023/06/03 01:10:10;;;;;;;6.72;2.65;;;;;;;11.47;100.00;101155.75;695399;28;1078;-58
2023/06/03 01:11:02;;;;;;;5.03;2.75;;;;;;;11.48;100.00;101154.88;694875;28;5147;-58
2023/06/03 01:11:47;;;;;;;5.95;2.90;;;;;;;11.46;100.00;101155.75;697298;28;1140;-58
2023/06/03 01:13:22;;;;;;;6.95;2.80;;;;;;;11.48;100.00;101148.75;700263;28;931;-58
2023/06/03 01:13:49;;;;;;;6.32;3.08;;;;;;;11.49;100.00;101154.00;682085;28;6467;-58
2023/06/03 01:14:21;;;;;;;5.13;3.03;;;;;;;11.48;100.00;101154.88;684435;28;1222;-58
2023/06/03 01:14:50;;;;;;;5.68;2.83;;;;;;;11.51;100.00;101151.38;683360;28;1468;-58
2023/06/03 01:15:18;;;;;;;5.00;2.90;;;;;;;11.50;100.00;101145.25;684334;28;1034;-58
2023/06/03 01:15:42;;;;;;;5.82;2.90;;;;;;;11.49;100.00;101150.50;682897;28;1470;-58
2023/06/03 01:16:04;;;;;;;6.30;2.90;;;;;;;11.50;100.00;101154.88;685724;28;853;-58
2023/06/03 01:16:30;;;;;;;5.70;2.83;;;;;;;11.47;100.00;101153.13;688561;28;4435;-57
2023/06/03 01:16:52;;;;;;;6.38;2.80;;;;;;;11.46;100.00;101150.50;686883;28;1064;-58
2023/06/03 01:17:15;;;;;;;5.55;2.45;;;;;;;11.46;100.00;101154.00;688331;28;908;-58
2023/06/03 01:17:39;;;;;;;5.20;2.67;;;;;;;11.46;100.00;101145.28;687329;28;2269;-58
2023/06/03 01:18:05;;;;;;;6.60;3.00;;;;;;;11.46;100.00;101146.13;690877;28;928;-58
2023/06/03 01:18:26;;;;;;;5.40;3.00;;;;;;;11.48;100.00;101149.66;689303;28;5387;-58
2023/06/03 01:18:47;;;;;;;6.68;2.97;;;;;;;11.55;100.00;101140.03;690210;28;1473;-58
2023/06/03 01:19:31;;;;;;;6.25;2.90;;;;;;;11.51;100.00;101147.00;688802;28;1015;-58
2023/06/03 01:19:52;;;;;;;5.70;3.13;;;;;;;11.51;100.00;101143.53;697207;28;5292;-57
2023/06/03 01:20:16;;;;;;;5.63;3.05;;;;;;;11.52;100.00;101143.53;697675;28;1202;-58
2023/06/03 01:20:37;;;;;;;4.80;2.88;;;;;;;11.50;100.00;101140.03;696600;28;1477;-58
2023/06/03 01:21:00;;;;;;;4.88;2.92;;;;;;;11.45;100.00;101146.13;695307;28;1279;-58
2023/06/03 01:21:20;;;;;;;6.18;2.90;;;;;;;11.45;100.00;101151.38;692951;28;828;-58
2023/06/03 01:21:44;;;;;;;5.33;2.90;;;;;;;11.45;100.00;101143.53;692817;28;1591;-58
2023/06/03 01:22:12;;;;;;;5.07;2.72;;;;;;;11.45;100.00;101143.53;695860;28;1003;-58
2023/06/03 01:22:40;;;;;;;5.10;2.88;;;;;;;11.46;100.00;101142.66;693522;28;5061;-58
2023/06/03 01:23:11;;;;;;;5.75;3.05;;;;;;;11.42;100.00;101136.53;697111;28;924;-58
2023/06/03 01:23:34;;;;;;;6.28;3.10;;;;;;;11.54;100.00;101147.00;698260;28;1655;-58
2023/06/03 01:23:56;;;;;;;5.43;2.70;;;;;;;11.53;100.00;101145.28;699554;28;1279;-58
2023/06/03 01:24:18;;;;;;;5.80;2.95;;;;;;;11.53;100.00;101142.66;699469;28;927;-57
2023/06/03 01:24:40;;;;;;;6.22;3.00;;;;;;;11.51;100.00;101139.16;696923;28;2301;-58
2023/06/03 01:25:04;;;;;;;4.85;2.63;;;;;;;11.49;100.00;101143.53;698077;28;860;-57
2023/06/03 01:25:26;;;;;;;5.10;2.78;;;;;;;11.49;100.00;101147.88;695312;28;4538;-57
2023/06/03 01:25:50;;;;;;;5.60;2.63;;;;;;;11.46;100.00;101143.53;696707;28;1435;-58
2023/06/03 01:26:13;;;;;;;7.47;3.03;;;;;;;11.47;100.00;101144.41;698533;28;994;-57
2023/06/03 01:26:34;;;;;;;5.05;2.60;;;;;;;11.47;100.00;101145.28;698677;28;929;-56
2023/06/03 01:26:55;;;;;;;6.05;2.83;;;;;;;11.46;100.00;101142.66;701252;28;883;-56
2023/06/03 01:27:18;;;;;;;5.47;3.00;;;;;;;11.44;100.00;101145.28;700689;28;1423;-59
2023/06/03 01:27:40;;;;;;;5.38;2.92;;;;;;;11.43;100.00;101145.28;699893;28;1569;-57
2023/06/03 01:28:00;;;;;;;5.70;3.00;;;;;;;11.42;100.00;101147.00;698069;28;920;-59
2023/06/03 01:28:21;;;;;;;7.18;3.00;;;;;;;11.47;100.00;101147.03;697240;28;4522;-57
2023/06/03 01:28:41;;;;;;;6.10;2.70;;;;;;;11.46;100.00;101138.28;696707;28;1456;-58
2023/06/03 01:29:02;;;;;;;7.33;3.00;;;;;;;11.47;100.00;101141.78;698233;28;999;-58
2023/06/03 01:29:23;;;;;;;9.48;3.13;;;;;;;11.44;100.00;101145.28;698124;28;919;-58
2023/06/03 01:29:45;;;;;;;7.67;2.83;;;;;;;11.41;100.00;101145.28;693297;28;1626;-58
2023/06/03 01:30:07;;;;;;;6.22;2.80;;;;;;;11.38;100.00;101142.66;699114;28;915;-58
2023/06/03 01:30:28;;;;;;;7.05;2.95;;;;;;;11.38;100.00;101147.88;700868;28;952;-58
2023/06/03 01:30:48;;;;;;;5.37;2.90;;;;;;;11.35;100.00;101140.94;698558;28;1470;-57
2023/06/03 01:31:09;;;;;;;5.90;3.08;;;;;;;11.37;100.00;101143.53;698328;28;1596;-58
2023/06/03 01:31:29;;;;;;;6.33;3.00;;;;;;;11.38;100.00;101146.16;698646;28;4420;-58
2023/06/03 01:31:52;;;;;;;5.32;2.80;;;;;;;11.45;100.00;101144.41;697572;28;1607;-58
2023/06/03 01:32:14;;;;;;;6.55;2.78;;;;;;;11.40;100.00;101140.91;697101;28;1207;-58
2023/06/03 01:32:37;;;;;;;6.07;2.83;;;;;;;11.38;100.00;101140.94;693947;28;1472;-58
2023/06/03 01:32:59;;;;;;;5.50;2.60;;;;;;;11.41;100.00;101140.06;697771;28;900;-58
2023/06/03 01:33:21;;;;;;;6.97;2.80;;;;;;;11.49;100.00;101150.50;694706;28;805;-58
2023/06/03 01:33:42;;;;;;;7.65;3.20;;;;;;;11.47;100.00;101147.03;693140;28;1442;-58
2023/06/03 01:34:03;;;;;;;7.32;3.10;;;;;;;11.44;100.00;101145.28;696686;28;807;-58
2023/06/03 01:34:23;;;;;;;6.15;3.03;;;;;;;11.41;100.00;101147.91;698443;28;4526;-58
2023/06/03 01:34:45;;;;;;;5.78;2.80;;;;;;;11.38;100.00;101142.66;694469;28;1767;-58
2023/06/03 01:35:07;;;;;;;6.88;2.80;;;;;;;11.43;100.00;101143.53;698402;28;2096;-58
2023/06/03 01:35:28;;;;;;;6.43;2.80;;;;;;;11.42;100.00;101147.00;698365;28;1277;-58
2023/06/03 01:35:53;;;;;;;5.10;3.17;;;;;;;11.39;100.00;101147.03;695912;28;3058;-58
2023/06/03 01:36:15;;;;;;;5.55;3.10;;;;;;;11.37;100.00;101146.16;695484;28;1063;-58
2023/06/03 01:36:35;;;;;;;5.85;2.80;;;;;;;11.36;100.00;101147.03;691287;28;1693;-58
2023/06/03 01:36:57;;;;;;;6.57;3.20;;;;;;;11.39;100.00;101142.69;691002;28;1268;-58
2023/06/03 01:37:18;;;;;;;5.85;2.95;;;;;;;11.47;100.00;101142.66;692547;28;4538;-58
2023/06/03 01:37:40;;;;;;;4.45;2.65;;;;;;;11.48;100.00;101135.66;691340;28;1559;-58
2023/06/03 01:38:01;;;;;;;4.43;2.88;;;;;;;11.47;100.00;101144.41;692750;28;1339;-58
2023/06/03 01:38:23;;;;;;;5.07;3.03;;;;;;;11.49;100.00;101145.25;693228;28;1200;-58
2023/06/03 01:38:48;;;;;;;5.25;2.95;;;;;;;11.51;100.00;101147.00;693999;28;1464;-58
2023/06/03 01:39:09;;;;;;;5.35;2.70;;;;;;;11.51;100.00;101140.91;694202;28;1338;-58
2023/06/03 01:39:30;;;;;;;6.28;3.00;;;;;;;11.50;100.00;101147.03;693112;28;1162;-58
2023/06/03 01:39:51;;;;;;;5.53;2.85;;;;;;;11.50;100.00;101149.63;694277;28;2025;-58
2023/06/03 01:40:12;;;;;;;5.15;2.70;;;;;;;11.53;100.00;101149.63;693822;28;4457;-58
2023/06/03 01:40:34;;;;;;;5.85;2.78;;;;;;;11.52;100.00;101143.53;693824;28;1471;-58
2023/06/03 01:40:55;;;;;;;6.13;2.88;;;;;;;11.50;100.00;101142.66;694115;28;905;-58
2023/06/03 01:41:16;;;;;;;5.80;2.70;;;;;;;11.50;100.00;101144.41;694047;28;1410;-57
2023/06/03 01:41:42;;;;;;;5.13;2.67;;;;;;;11.48;100.00;101146.13;694510;28;919;-58
2023/06/03 01:42:03;;;;;;;5.13;2.70;;;;;;;11.46;100.00;101148.75;693258;28;1417;-57
2023/06/03 01:42:24;;;;;;;6.43;2.90;;;;;;;11.45;100.00;101144.41;691519;28;1368;-58
2023/06/03 01:42:44;;;;;;;7.45;2.80;;;;;;;11.44;100.00;101147.91;689922;28;2098;-58
2023/06/03 01:43:05;;;;;;;6.30;2.80;;;;;;;11.46;100.00;101147.91;693424;28;1041;-58
2023/06/03 01:43:25;;;;;;;5.68;2.90;;;;;;;11.43;100.00;101154.00;696186;28;4476;-57
2023/06/03 01:43:46;;;;;;;5.27;2.87;;;;;;;11.43;100.00;101146.16;697123;28;1503;-58
2023/06/03 01:44:06;;;;;;;6.00;2.90;;;;;;;11.44;100.00;101145.28;699317;28;1235;-58
2023/06/03 01:44:26;;;;;;;5.53;3.00;;;;;;;11.44;100.00;101142.66;700189;28;1021;-58
2023/06/03 01:44:47;;;;;;;5.60;3.20;;;;;;;11.44;100.00;101150.53;699563;28;1823;-58
2023/06/03 01:45:08;;;;;;;5.13;2.83;;;;;;;11.41;100.00;101142.66;699249;28;904;-57
2023/06/03 01:45:29;;;;;;;4.85;2.63;;;;;;;11.40;100.00;101143.53;699651;28;844;-58
2023/06/03 01:45:49;;;;;;;5.90;2.70;;;;;;;11.40;100.00;101143.53;697140;28;1553;-58